Time;durP1;ratioP1;P1;durP2;ratioP2;P2;SDS_P1;SDS_P2;PMS_P1;PMS_P2;Temp;Humidity;BMP_temperature;BMP_pressure;BME280_temperature;BME280_humidity;BME280_pressure;Samples;Min_cycle;Max_cycle;Signal;HPM_P1;HPM_P2
2023/06/14 00:01:06;;;;;;;0.80;0.80;;;;;;;21.95;100.00;99867.75;5071298;28;20198;-75
2023/06/14 00:03:32;;;;;;;0.70;0.70;;;;;;;21.99;100.00;99874.66;5070890;28;20617;-76
2023/06/14 00:05:59;;;;;;;0.80;0.80;;;;;;;21.98;100.00;99866.75;5070992;28;20728;-76
2023/06/14 00:08:26;;;;;;;0.70;0.70;;;;;;;22.03;100.00;99854.28;5070959;28;20206;-76
2023/06/14 00:10:54;;;;;;;0.80;0.80;;;;;;;22.19;100.00;99869.50;5071311;28;20259;-76
2023/06/14 00:13:21;;;;;;;0.73;0.73;;;;;;;22.02;100.00;99858.69;5070929;28;20194;-76
2023/06/14 00:15:48;;;;;;;0.80;0.80;;;;;;;21.94;100.00;99860.72;5071366;28;20202;-76
2023/06/14 00:18:16;;;;;;;0.73;0.73;;;;;;;21.94;100.00;99860.72;5070813;28;20207;-75
2023/06/14 00:20:43;;;;;;;0.80;0.80;;;;;;;21.87;100.00;99860.97;5071489;28;20195;-75
2023/06/14 00:23:10;;;;;;;1.63;1.55;;;;;;;21.84;100.00;99837.31;5071177;28;20290;-75
2023/06/14 00:25:37;;;;;;;0.80;0.80;;;;;;;21.95;100.00;99862.47;5071160;28;20218;-75
2023/06/14 00:28:05;;;;;;;0.80;0.80;;;;;;;22.09;100.00;99854.03;5070875;28;20260;-75
2023/06/14 00:30:31;;;;;;;0.70;0.70;;;;;;;21.93;100.00;99858.16;5070630;28;20218;-75
2023/06/14 00:32:59;;;;;;;0.70;0.70;;;;;;;21.98;100.00;99856.19;5035956;28;20252;-75
2023/06/14 00:35:26;;;;;;;0.75;0.75;;;;;;;22.05;100.00;99850.66;5070968;28;20199;-76
2023/06/14 00:37:54;;;;;;;0.73;0.73;;;;;;;22.09;100.00;99854.91;5035870;28;20223;-76
2023/06/14 00:40:21;;;;;;;0.90;0.90;;;;;;;22.06;100.00;99848.88;5070861;28;20265;-76
2023/06/14 00:42:48;;;;;;;0.70;0.70;;;;;;;21.91;100.00;99852.06;5071084;28;20252;-76
2023/06/14 00:45:16;;;;;;;1.00;1.00;;;;;;;21.82;100.00;99831.22;5071142;28;20242;-75
2023/06/14 00:47:44;;;;;;;0.80;0.80;;;;;;;21.55;100.00;99796.94;5035298;28;20649;-76
2023/06/14 00:50:12;;;;;;;0.80;0.80;;;;;;;21.65;100.00;99803.63;5070831;28;20605;-76
2023/06/14 00:52:40;;;;;;;0.77;0.77;;;;;;;21.88;100.00;99831.88;5071252;28;20253;-76
2023/06/14 00:55:08;;;;;;;0.70;0.70;;;;;;;21.93;100.00;99831.75;5073718;28;20244;-76
2023/06/14 00:57:37;;;;;;;0.70;0.70;;;;;;;21.93;100.00;99822.06;5074418;28;20195;-76
2023/06/14 01:00:09;;;;;;;0.73;0.73;;;;;;;21.95;100.00;99830.78;5038962;28;20222;-75
2023/06/14 01:02:38;;;;;;;0.80;0.80;;;;;;;21.82;100.00;99826.81;5065661;28;20195;-76
2023/06/14 01:05:07;;;;;;;0.70;0.70;;;;;;;21.76;100.00;99824.38;5069374;28;20215;-76
2023/06/14 01:07:53;;;;;;;0.70;0.70;;;;;;;21.82;100.00;99831.22;5074399;28;20197;-76
2023/06/14 01:10:35;;;;;;;0.70;0.70;;;;;;;21.78;100.00;99825.19;5074198;28;20201;-77
2023/06/14 01:13:11;;;;;;;0.70;0.70;;;;;;;21.79;100.00;99824.28;5074301;28;20210;-75
2023/06/14 01:15:39;;;;;;;0.80;0.80;;;;;;;21.59;100.00;99827.59;5074477;28;20198;-75
2023/06/14 01:18:08;;;;;;;0.80;0.80;;;;;;;21.66;100.00;99822.97;5074153;28;20252;-75
2023/06/14 01:20:37;;;;;;;0.70;0.70;;;;;;;21.47;100.00;99822.75;5036989;28;20717;-75
2023/06/14 01:23:05;;;;;;;0.73;0.73;;;;;;;21.52;100.00;99815.53;5074403;28;20819;-75
2023/06/14 01:25:32;;;;;;;0.70;0.70;;;;;;;21.32;100.00;99827.66;5073827;28;20690;-75
2023/06/14 01:28:11;;;;;;;0.70;0.70;;;;;;;21.38;100.00;99806.34;5036989;28;20732;-76
2023/06/14 01:30:39;;;;;;;0.80;0.80;;;;;;;21.21;100.00;99809.56;5068809;28;20772;-76
2023/06/14 01:33:06;;;;;;;0.70;0.70;;;;;;;21.30;100.00;99830.34;5073476;28;20256;-76
2023/06/14 01:35:33;;;;;;;0.63;0.63;;;;;;;21.27;100.00;99825.16;5073978;28;20280;-76
2023/06/14 01:38:01;;;;;;;0.70;0.70;;;;;;;21.33;100.00;99829.41;5073271;28;20260;-76
2023/06/14 01:40:29;;;;;;;0.70;0.70;;;;;;;21.35;100.00;99830.19;5074242;28;20246;-76
2023/06/14 01:42:56;;;;;;;0.73;0.73;;;;;;;21.24;100.00;99826.13;5074176;28;20586;-76
2023/06/14 01:45:24;;;;;;;0.70;0.70;;;;;;;21.12;100.00;99815.97;5073924;28;20223;-74
2023/06/14 01:47:51;;;;;;;1.58;1.50;;;;;;;21.07;100.00;99817.88;5054821;28;20195;-76
2023/06/14 01:50:20;;;;;;;0.70;0.70;;;;;;;21.31;100.00;99831.19;5037901;28;20289;-76
2023/06/14 01:52:47;;;;;;;0.70;0.70;;;;;;;21.15;100.00;99815.88;5073291;28;20203;-76
2023/06/14 01:55:13;;;;;;;0.80;0.80;;;;;;;21.25;100.00;99827.00;5073875;28;20257;-75
2023/06/14 01:57:41;;;;;;;0.70;0.70;;;;;;;21.40;100.00;99833.56;5072325;28;20190;-76
2023/06/14 02:00:12;;;;;;;0.68;0.68;;;;;;;21.35;100.00;99830.19;5037988;28;20206;-76
2023/06/14 02:02:39;;;;;;;0.70;0.70;;;;;;;21.25;100.00;99833.16;5038691;28;20256;-76
2023/06/14 02:05:06;;;;;;;0.70;0.70;;;;;;;21.07;100.00;99838.97;5072262;28;20223;-76
2023/06/14 02:07:33;;;;;;;0.80;0.80;;;;;;;20.83;100.00;99804.59;5072838;28;20203;-75
2023/06/14 02:10:00;;;;;;;0.80;0.80;;;;;;;21.06;100.00;99837.22;5073602;28;20199;-75
2023/06/14 02:12:26;;;;;;;0.80;0.80;;;;;;;20.96;100.00;99830.53;5072703;28;20207;-75
2023/06/14 02:14:56;;;;;;;0.80;0.80;;;;;;;21.01;100.00;99833.03;5073368;28;20245;-75
2023/06/14 02:17:22;;;;;;;0.70;0.70;;;;;;;20.58;100.00;99820.31;5072810;28;20696;-75
2023/06/14 02:19:50;;;;;;;0.80;0.80;;;;;;;20.77;100.00;99829.38;5072677;28;20206;-75
2023/06/14 02:22:17;;;;;;;0.80;0.80;;;;;;;20.78;100.00;99823.19;5072958;28;20286;-75
2023/06/14 02:24:45;;;;;;;0.80;0.80;;;;;;;20.86;100.00;99829.09;5073037;28;20190;-75
2023/06/14 02:27:12;;;;;;;0.80;0.80;;;;;;;20.77;100.00;99829.38;5072747;28;20199;-76
2023/06/14 02:29:38;;;;;;;0.70;0.70;;;;;;;20.77;100.00;99829.38;5072347;28;20223;-75
2023/06/14 02:32:08;;;;;;;0.70;0.70;;;;;;;20.87;100.00;99836.06;5072824;28;20199;-76
2023/06/14 02:34:34;;;;;;;0.70;0.70;;;;;;;20.68;100.00;99834.94;5072540;28;20287;-75
2023/06/14 02:37:02;;;;;;;0.75;0.75;;;;;;;20.70;100.00;99843.63;5072470;28;20205;-75
2023/06/14 02:39:29;;;;;;;0.70;0.70;;;;;;;20.73;100.00;99841.75;5046020;28;20199;-76
2023/06/14 02:41:56;;;;;;;0.70;0.70;;;;;;;20.73;100.00;99840.91;5064889;28;20206;-75
2023/06/14 02:44:26;;;;;;;0.80;0.80;;;;;;;20.81;100.00;99840.66;5072267;28;20654;-75
2023/06/14 02:46:53;;;;;;;0.70;0.70;;;;;;;20.62;100.00;99833.31;5072444;28;20310;-76
2023/06/14 02:49:22;;;;;;;0.70;0.70;;;;;;;20.68;100.00;99821.75;5072367;28;20207;-76
2023/06/14 02:51:48;;;;;;;0.68;0.68;;;;;;;20.76;100.00;99865.38;5072302;28;20199;-76
2023/06/14 02:54:15;;;;;;;0.73;0.73;;;;;;;20.72;100.00;99857.66;5071945;28;20198;-76
2023/06/14 02:56:42;;;;;;;0.60;0.60;;;;;;;20.85;100.00;99869.53;5071867;28;20277;-74
2023/06/14 02:59:09;;;;;;;0.60;0.60;;;;;;;20.91;100.00;99874.59;5072019;28;20199;-76
2023/06/14 03:01:40;;;;;;;0.70;0.70;;;;;;;21.00;100.00;99879.63;5071880;28;20233;-76
2023/06/14 03:04:08;;;;;;;0.80;0.80;;;;;;;21.12;100.00;99889.81;5052870;28;20256;-75
2023/06/14 03:06:36;;;;;;;0.70;0.70;;;;;;;21.31;100.00;99889.22;5071804;28;20230;-75
2023/06/14 03:09:05;;;;;;;0.80;0.80;;;;;;;21.27;100.00;99876.16;5072357;28;20223;-75
2023/06/14 03:11:32;;;;;;;0.70;0.70;;;;;;;21.62;100.00;99896.09;5071453;28;20268;-75
2023/06/14 03:13:59;;;;;;;0.77;0.77;;;;;;;22.05;100.00;99898.19;5072186;28;20191;-75
2023/06/14 03:16:28;;;;;;;0.60;0.60;;;;;;;22.72;100.00;99911.66;5071836;28;20203;-75
2023/06/14 03:18:55;;;;;;;0.73;0.73;;;;;;;23.42;100.00;99908.97;5072003;28;20199;-75
2023/06/14 03:21:22;;;;;;;0.70;0.70;;;;;;;24.19;100.00;99914.53;5071787;28;20645;-75
2023/06/14 03:23:51;;;;;;;0.70;0.70;;;;;;;24.43;94.54;99906.44;5071281;28;20244;-75
2023/06/14 03:26:18;;;;;;;0.77;0.77;;;;;;;24.78;94.39;99934.91;5071712;28;20230;-75
2023/06/14 03:28:45;;;;;;;0.80;0.80;;;;;;;24.96;90.00;99936.75;5071882;28;20658;-75
2023/06/14 03:31:11;;;;;;;0.80;0.80;;;;;;;25.22;88.95;99932.84;5071114;28;20226;-75
2023/06/14 03:33:38;;;;;;;0.70;0.70;;;;;;;25.43;88.84;99936.28;5071735;28;20210;-75
2023/06/14 03:36:05;;;;;;;0.70;0.70;;;;;;;25.58;87.42;99930.25;5071949;28;20654;-75
2023/06/14 03:38:32;;;;;;;0.80;0.80;;;;;;;25.23;87.05;99934.56;5040739;28;20199;-75
2023/06/14 03:41:00;;;;;;;0.68;0.68;;;;;;;25.32;90.07;99934.16;5067845;28;20190;-75
2023/06/14 03:43:28;;;;;;;0.70;0.70;;;;;;;25.53;90.10;99933.16;5071454;28;20198;-75
2023/06/14 03:45:54;;;;;;;0.60;0.60;;;;;;;25.96;84.80;99931.91;5071092;28;20306;-74
2023/06/14 03:48:21;;;;;;;0.63;0.63;;;;;;;26.74;81.77;99936.69;5071400;28;20195;-75
2023/06/14 03:50:48;;;;;;;0.60;0.60;;;;;;;27.15;77.43;99936.28;5022759;28;20199;-75
2023/06/14 03:53:15;;;;;;;3.75;1.25;;;;;;;27.13;77.99;99938.16;5070396;28;20187;-75
2023/06/14 03:55:42;;;;;;;0.70;0.70;;;;;;;27.71;73.69;99931.31;5071435;28;20692;-76
2023/06/14 03:58:10;;;;;;;0.60;0.60;;;;;;;28.29;71.23;99944.75;5071665;28;20282;-75
2023/06/14 04:00:37;;;;;;;0.60;0.60;;;;;;;28.33;70.82;99946.28;5071386;28;20653;-75
2023/06/14 04:03:05;;;;;;;0.73;0.73;;;;;;;28.76;68.68;99957.91;5070814;28;20578;-75
2023/06/14 04:05:32;;;;;;;0.60;0.60;;;;;;;28.71;67.55;99957.34;5071174;28;20315;-75
2023/06/14 04:08:00;;;;;;;0.70;0.70;;;;;;;28.89;65.49;99929.50;5072292;28;20252;-80
2023/06/14 04:10:27;;;;;;;0.50;0.50;;;;;;;28.72;66.81;99956.38;5069534;28;20203;-77
2023/06/14 04:12:54;;;;;;;0.80;0.80;;;;;;;27.84;71.86;99939.44;5047829;28;20207;-79
2023/06/14 04:15:22;;;;;;;0.70;0.70;;;;;;;27.07;78.71;99950.88;5068074;28;20198;-77
2023/06/14 04:17:49;;;;;;;0.85;0.85;;;;;;;26.10;85.13;99883.34;5069753;28;20199;-84
2023/06/14 04:20:16;;;;;;;0.80;0.80;;;;;;;26.07;87.54;99956.13;5071567;28;20199;-75
2023/06/14 04:22:43;;;;;;;0.80;0.80;;;;;;;25.51;93.22;99952.72;5071689;28;20206;-76
2023/06/14 04:25:11;;;;;;;0.70;0.70;;;;;;;25.20;96.72;99945.34;5069955;28;20682;-76
2023/06/14 04:27:39;;;;;;;0.70;0.70;;;;;;;24.68;100.00;99954.81;5062762;28;20574;-76
2023/06/14 04:30:07;;;;;;;0.90;0.90;;;;;;;24.39;100.00;99955.22;5067068;28;20227;-76
2023/06/14 04:32:38;;;;;;;0.80;0.80;;;;;;;24.00;100.00;99953.31;5050867;28;20289;-76
2023/06/14 04:35:06;;;;;;;0.73;0.73;;;;;;;24.06;100.00;99961.00;5060300;28;20761;-77
2023/06/14 04:37:33;;;;;;;0.70;0.70;;;;;;;24.12;100.00;99947.50;5069290;28;20205;-76
2023/06/14 04:40:00;;;;;;;0.70;0.70;;;;;;;23.91;100.00;99943.09;5067331;28;20203;-78
2023/06/14 04:42:30;;;;;;;0.90;0.90;;;;;;;23.84;100.00;99941.63;5065539;28;20264;-79
2023/06/14 04:44:58;;;;;;;0.75;0.75;;;;;;;24.04;100.00;99959.34;5066679;28;20203;-77
2023/06/14 04:47:29;;;;;;;7.15;1.02;;;;;;;24.00;100.00;99963.91;5065404;28;20280;-77
2023/06/14 04:50:00;;;;;;;0.70;0.70;;;;;;;23.66;100.00;99952.97;5059200;28;20210;-78
2023/06/14 04:52:29;;;;;;;0.70;0.70;;;;;;;23.83;100.00;99958.44;5071308;28;20207;-78
2023/06/14 04:54:56;;;;;;;0.73;0.73;;;;;;;23.92;100.00;99965.16;5074595;28;20201;-76
2023/06/14 04:57:25;;;;;;;0.70;0.70;;;;;;;24.03;100.00;99966.44;5074096;28;20210;-77
2023/06/14 04:59:54;;;;;;;1.15;1.15;;;;;;;24.01;100.00;99970.03;5072659;28;20276;-77
2023/06/14 05:02:22;;;;;;;0.77;0.77;;;;;;;24.22;100.00;99973.66;5070171;28;20222;-77
2023/06/14 05:04:48;;;;;;;1.02;1.02;;;;;;;24.02;100.00;99956.75;5074207;28;20206;-80
2023/06/14 05:07:17;;;;;;;0.80;0.80;;;;;;;24.13;100.00;99975.75;5064981;28;20697;-78
2023/06/14 05:09:43;;;;;;;0.80;0.80;;;;;;;23.89;100.00;99959.97;5067248;28;20214;-80
2023/06/14 05:12:10;;;;;;;0.70;0.70;;;;;;;23.73;100.00;99951.78;5064178;28;20195;-78
2023/06/14 05:14:37;;;;;;;0.70;0.70;;;;;;;23.93;100.00;99961.59;5069791;28;20438;-78
2023/06/14 05:17:05;;;;;;;0.70;0.70;;;;;;;24.26;100.00;99991.13;5061564;28;20258;-76
2023/06/14 05:19:32;;;;;;;0.77;0.77;;;;;;;24.03;100.00;99990.28;5054737;28;20211;-78
2023/06/14 05:21:59;;;;;;;0.70;0.70;;;;;;;24.03;100.00;99963.78;5055163;28;20644;-77
2023/06/14 05:24:28;;;;;;;0.73;0.73;;;;;;;24.38;100.00;99998.56;5062497;28;20211;-76
2023/06/14 05:26:55;;;;;;;0.70;0.70;;;;;;;24.02;100.00;100003.56;5057979;28;20258;-76
2023/06/14 05:29:22;;;;;;;0.70;0.70;;;;;;;23.99;100.00;99983.38;5073138;28;20207;-78
2023/06/14 05:31:48;;;;;;;0.82;0.82;;;;;;;24.30;100.00;100000.66;5074767;28;20206;-78
2023/06/14 05:34:15;;;;;;;0.60;0.60;;;;;;;24.49;100.00;100004.25;5067824;28;20205;-77
2023/06/14 05:36:42;;;;;;;0.70;0.70;;;;;;;24.25;100.00;99984.09;5073609;28;20211;-77
2023/06/14 05:39:09;;;;;;;0.70;0.70;;;;;;;24.30;100.00;100000.66;5072626;28;20207;-76
2023/06/14 05:41:37;;;;;;;0.85;0.85;;;;;;;24.75;100.00;100001.34;5070854;28;20202;-78
2023/06/14 05:44:04;;;;;;;0.73;0.73;;;;;;;24.87;100.00;100011.41;5072675;28;20205;-75
2023/06/14 05:46:31;;;;;;;0.60;0.60;;;;;;;24.97;100.00;100006.59;5072728;28;20292;-76
2023/06/14 05:48:58;;;;;;;0.75;0.75;;;;;;;25.00;100.00;100014.41;5069884;28;20211;-76
2023/06/14 05:51:26;;;;;;;0.75;0.75;;;;;;;24.45;100.00;100007.97;5029037;28;20617;-77
2023/06/14 05:53:53;;;;;;;0.90;0.90;;;;;;;24.62;100.00;100010.75;5061281;28;20202;-77
2023/06/14 05:56:20;;;;;;;0.80;0.80;;;;;;;25.27;100.00;100014.91;5062300;28;20206;-77
2023/06/14 05:58:48;;;;;;;1.13;1.13;;;;;;;25.42;100.00;100022.19;5064350;28;20198;-77
2023/06/14 06:01:16;;;;;;;0.70;0.70;;;;;;;25.50;100.00;100017.38;5036998;28;20594;-77
2023/06/14 06:03:45;;;;;;;0.70;0.70;;;;;;;25.83;97.92;100026.41;5058390;28;20203;-76
2023/06/14 06:06:12;;;;;;;0.80;0.80;;;;;;;26.14;95.42;100005.38;5017841;28;20231;-77
2023/06/14 06:08:40;;;;;;;0.70;0.70;;;;;;;26.00;93.42;99983.09;5053587;28;20646;-77
2023/06/14 06:11:07;;;;;;;0.70;0.70;;;;;;;26.34;94.09;100028.34;5053212;28;20203;-77
2023/06/14 06:13:34;;;;;;;1.50;1.40;;;;;;;25.80;96.60;100015.06;5065494;28;20212;-76
2023/06/14 06:16:03;;;;;;;0.70;0.70;;;;;;;26.07;94.53;100001.31;5052883;28;20218;-77
2023/06/14 06:18:29;;;;;;;0.80;0.80;;;;;;;26.39;92.75;100028.09;5059385;28;20199;-77
2023/06/14 06:20:56;;;;;;;0.70;0.70;;;;;;;26.57;89.71;100013.88;5052984;28;20215;-77
2023/06/14 06:23:23;;;;;;;0.85;0.85;;;;;;;27.06;88.09;100028.16;5060148;28;20211;-76
2023/06/14 06:25:50;;;;;;;0.90;0.90;;;;;;;26.97;86.84;100029.47;5052505;28;20632;-76
2023/06/14 06:28:16;;;;;;;2.25;2.05;;;;;;;26.65;89.72;100021.47;5062503;28;20631;-76
2023/06/14 06:30:43;;;;;;;0.70;0.70;;;;;;;26.73;88.93;100021.91;5072593;28;20330;-76
2023/06/14 06:33:11;;;;;;;0.80;0.80;;;;;;;27.07;87.60;100014.78;5072443;28;20210;-76
2023/06/14 06:35:38;;;;;;;0.70;0.70;;;;;;;27.50;83.92;100023.94;5072613;28;20207;-77
2023/06/14 06:38:05;;;;;;;0.60;0.60;;;;;;;28.04;81.46;100021.75;5069375;28;20206;-78
2023/06/14 06:40:32;;;;;;;1.15;1.15;;;;;;;28.17;78.41;100019.28;5058694;28;20210;-77
2023/06/14 06:42:58;;;;;;;0.85;0.85;;;;;;;28.32;77.29;100023.75;5053118;28;20200;-77
2023/06/14 06:45:25;;;;;;;0.70;0.70;;;;;;;28.03;79.21;100020.94;5052691;28;20207;-77
2023/06/14 06:47:52;;;;;;;0.63;0.63;;;;;;;28.24;79.80;100021.53;5017560;28;20276;-76
2023/06/14 06:50:22;;;;;;;0.82;0.82;;;;;;;27.80;82.01;100023.19;5052146;28;20666;-76
2023/06/14 06:52:50;;;;;;;1.20;1.10;;;;;;;27.45;82.87;100025.16;5053624;28;20229;-76
2023/06/14 06:55:18;;;;;;;0.80;0.80;;;;;;;27.43;82.86;100016.38;5052467;28;20208;-76
2023/06/14 06:57:44;;;;;;;0.75;0.75;;;;;;;27.22;81.43;99982.94;5053480;28;20941;-77
2023/06/14 07:00:12;;;;;;;0.80;0.80;;;;;;;27.58;81.68;100015.53;5057235;28;20630;-76
2023/06/14 07:02:39;;;;;;;0.65;0.65;;;;;;;27.43;81.55;100016.38;5065517;28;20225;-76
2023/06/14 07:05:07;;;;;;;0.70;0.70;;;;;;;26.74;83.30;100016.50;5057706;28;20204;-76
2023/06/14 07:07:35;;;;;;;0.70;0.70;;;;;;;27.22;82.20;100022.88;5063397;28;20281;-77
2023/06/14 07:10:04;;;;;;;0.68;0.68;;;;;;;26.81;82.10;100020.56;5070654;28;20263;-77
2023/06/14 07:12:31;;;;;;;0.65;0.65;;;;;;;26.42;84.08;100028.81;5066042;28;20203;-76
2023/06/14 07:14:58;;;;;;;0.70;0.70;;;;;;;26.78;84.06;100027.84;5058399;28;20207;-78
2023/06/14 07:17:25;;;;;;;0.70;0.70;;;;;;;27.30;80.28;100025.94;5056955;28;20222;-77
2023/06/14 07:19:53;;;;;;;0.70;0.70;;;;;;;27.29;79.58;100024.25;5059608;28;20199;-77
2023/06/14 07:22:20;;;;;;;0.93;0.93;;;;;;;27.60;73.96;100034.97;5064365;28;20215;-78
2023/06/14 07:24:48;;;;;;;0.63;0.63;;;;;;;28.04;71.86;100030.63;5070821;28;20673;-77
2023/06/14 07:27:15;;;;;;;0.65;0.65;;;;;;;28.47;68.75;100039.69;5053568;28;20232;-77
2023/06/14 07:29:41;;;;;;;0.70;0.70;;;;;;;28.52;66.45;100034.09;5071623;28;20246;-77
2023/06/14 07:32:08;;;;;;;0.60;0.60;;;;;;;28.64;64.72;100038.69;5055403;28;20207;-76
2023/06/14 07:34:35;;;;;;;1.00;1.00;;;;;;;28.57;63.06;100040.84;5057244;28;20203;-78
2023/06/14 07:37:02;;;;;;;0.60;0.60;;;;;;;28.18;63.64;100031.69;5059076;28;20203;-78
2023/06/14 07:39:28;;;;;;;0.90;0.90;;;;;;;28.11;63.49;100012.50;5054749;28;20203;-77
2023/06/14 07:41:57;;;;;;;0.70;0.70;;;;;;;28.10;62.97;100009.94;5058382;28;20202;-76
2023/06/14 07:44:23;;;;;;;0.70;0.70;;;;;;;27.76;64.27;100024.28;5059235;28;20744;-76
2023/06/14 07:46:50;;;;;;;1.20;1.17;;;;;;;27.18;67.66;100021.31;5063833;28;20237;-76
2023/06/14 07:49:17;;;;;;;0.60;0.60;;;;;;;26.95;72.11;100020.72;5065962;28;20206;-76
2023/06/14 07:51:45;;;;;;;0.73;0.73;;;;;;;26.95;70.48;100026.06;5054222;28;20215;-77
2023/06/14 07:54:12;;;;;;;0.60;0.60;;;;;;;26.82;69.62;99998.38;5059136;28;20226;-76
2023/06/14 07:56:39;;;;;;;0.90;0.90;;;;;;;26.62;69.40;100025.97;5056937;28;20218;-76
2023/06/14 07:59:07;;;;;;;0.80;0.80;;;;;;;26.55;72.43;100027.25;5060254;28;20207;-76
2023/06/14 08:01:34;;;;;;;1.52;1.42;;;;;;;26.83;74.98;100021.38;5051401;28;20207;-82
2023/06/14 08:04:01;;;;;;;0.90;0.90;;;;;;;26.76;78.62;100019.94;5060719;28;20222;-77
2023/06/14 08:06:28;;;;;;;0.60;0.60;;;;;;;27.24;74.65;100002.34;5056934;28;20211;-76
2023/06/14 08:08:54;;;;;;;0.80;0.80;;;;;;;27.13;77.43;100020.69;5037651;28;20237;-77
2023/06/14 08:11:23;;;;;;;1.10;1.08;;;;;;;27.42;71.87;100023.50;5050811;28;20203;-77
2023/06/14 08:13:50;;;;;;;0.80;0.80;;;;;;;27.41;73.30;100023.56;5060130;28;20206;-78
2023/06/14 08:16:19;;;;;;;0.60;0.60;;;;;;;28.08;72.37;100008.22;5019082;28;20536;-77
2023/06/14 08:18:45;;;;;;;0.90;0.90;;;;;;;28.04;67.70;100032.44;5058391;28;20209;-76
2023/06/14 08:21:14;;;;;;;0.52;0.52;;;;;;;27.89;63.88;100026.19;5055477;28;20202;-76
2023/06/14 08:23:42;;;;;;;0.80;0.80;;;;;;;27.65;64.55;100021.41;5057853;28;20206;-75
2023/06/14 08:26:09;;;;;;;0.77;0.77;;;;;;;27.93;64.36;100022.38;5060836;28;20198;-76
2023/06/14 08:28:36;;;;;;;0.60;0.60;;;;;;;28.58;62.22;100018.56;5070608;28;20230;-77
2023/06/14 08:31:03;;;;;;;0.70;0.70;;;;;;;29.22;58.28;100032.47;5066131;28;20280;-77
2023/06/14 08:33:33;;;;;;;0.70;0.70;;;;;;;29.69;56.83;100035.69;5070750;28;20217;-77
2023/06/14 08:36:00;;;;;;;0.70;0.70;;;;;;;29.57;56.14;100028.50;5070775;28;20207;-77
2023/06/14 08:38:27;;;;;;;1.45;1.45;;;;;;;29.99;54.88;100028.41;5069966;28;20203;-77
2023/06/14 08:40:59;;;;;;;1.33;1.33;;;;;;;30.10;54.83;100026.84;5071525;28;20554;-77
2023/06/14 08:43:25;;;;;;;0.65;0.65;;;;;;;29.60;54.62;100020.28;5071157;28;20282;-76
2023/06/14 08:45:58;;;;;;;0.60;0.60;;;;;;;29.24;56.06;100033.25;5071432;28;20206;-76
2023/06/14 08:48:27;;;;;;;0.60;0.60;;;;;;;29.38;56.32;100027.94;5070220;28;20226;-76
2023/06/14 08:51:01;;;;;;;0.77;0.77;;;;;;;29.76;54.67;100030.81;5070823;28;20203;-76
2023/06/14 08:53:31;;;;;;;0.60;0.60;;;;;;;29.40;56.34;100039.38;5070155;28;20711;-76
2023/06/14 08:56:01;;;;;;;0.65;0.65;;;;;;;29.35;56.11;100041.47;5070751;28;20708;-76
2023/06/14 08:58:29;;;;;;;0.63;0.63;;;;;;;29.72;55.09;100026.63;5070130;28;20195;-76
2023/06/14 09:00:57;;;;;;;0.90;0.90;;;;;;;30.08;56.95;100036.75;5070732;28;20596;-76
2023/06/14 09:03:29;;;;;;;0.70;0.70;;;;;;;30.26;54.27;100043.56;5070234;28;20203;-76
2023/06/14 09:06:00;;;;;;;0.65;0.65;;;;;;;30.69;53.00;100042.41;5070660;28;20264;-76
2023/06/14 09:08:30;;;;;;;0.65;0.65;;;;;;;30.64;53.04;100039.22;5069796;28;20219;-76
2023/06/14 09:10:57;;;;;;;0.60;0.60;;;;;;;30.08;54.21;100055.47;5036332;28;20627;-76
2023/06/14 09:13:24;;;;;;;0.60;0.60;;;;;;;29.95;54.88;100026.03;5070467;28;20206;-76
2023/06/14 09:15:52;;;;;;;0.70;0.70;;;;;;;29.84;55.23;100040.09;5037680;28;20191;-76
2023/06/14 09:18:20;;;;;;;2.40;1.58;;;;;;;30.05;55.29;100028.94;5038310;28;20234;-76
2023/06/14 09:20:48;;;;;;;0.60;0.60;;;;;;;30.29;54.30;100043.34;5074210;28;20260;-76
2023/06/14 09:23:22;;;;;;;0.90;0.90;;;;;;;30.95;51.97;100043.28;5074029;28;20329;-76
2023/06/14 09:25:48;;;;;;;0.88;0.88;;;;;;;30.82;54.43;100048.63;5035142;28;20372;-76
2023/06/14 09:28:15;;;;;;;0.90;0.90;;;;;;;30.68;53.05;100051.41;5018165;28;20256;-79
2023/06/14 09:30:42;;;;;;;0.75;0.75;;;;;;;30.61;53.03;100042.06;5073657;28;20301;-77
2023/06/14 09:33:09;;;;;;;0.70;0.70;;;;;;;30.62;53.62;100048.28;5073832;28;20226;-77
2023/06/14 09:35:36;;;;;;;0.95;0.95;;;;;;;30.43;55.00;100041.50;5073845;28;20229;-77
2023/06/14 09:38:03;;;;;;;0.70;0.70;;;;;;;30.23;55.38;100028.59;5073574;28;20199;-77
2023/06/14 09:40:36;;;;;;;0.70;0.70;;;;;;;29.43;58.28;99972.41;5073353;28;20199;-77
2023/06/14 09:43:08;;;;;;;0.98;0.75;;;;;;;29.56;61.96;100037.44;5054312;28;20234;-76
2023/06/14 09:45:34;;;;;;;0.55;0.55;;;;;;;29.53;60.45;100016.28;5073561;28;20205;-75
2023/06/14 09:48:02;;;;;;;0.60;0.60;;;;;;;29.79;61.07;100027.94;5073167;28;20284;-77
2023/06/14 09:50:29;;;;;;;0.60;0.60;;;;;;;28.91;65.64;100017.50;5073089;28;20586;-76
2023/06/14 09:53:03;;;;;;;0.70;0.70;;;;;;;28.89;63.52;100022.94;5073981;28;20207;-77
2023/06/14 09:55:34;;;;;;;0.60;0.60;;;;;;;29.19;61.58;100017.50;5071677;28;20648;-78
2023/06/14 09:58:03;;;;;;;0.70;0.70;;;;;;;29.10;61.69;100026.09;5073572;28;20739;-76
2023/06/14 10:00:33;;;;;;;0.70;0.70;;;;;;;29.11;61.72;100027.78;5073398;28;20214;-78
2023/06/14 10:03:05;;;;;;;0.60;0.60;;;;;;;29.40;64.63;100024.19;5070272;28;20225;-76
2023/06/14 10:05:32;;;;;;;0.73;0.73;;;;;;;29.24;63.42;100026.09;5073066;28;20203;-76
2023/06/14 10:08:02;;;;;;;0.95;0.95;;;;;;;29.43;61.21;100010.63;5067380;28;20215;-76
2023/06/14 10:10:30;;;;;;;0.60;0.60;;;;;;;29.75;60.43;100019.25;5046709;28;20592;-76
2023/06/14 10:12:57;;;;;;;0.70;0.70;;;;;;;30.15;58.60;100022.00;5063936;28;20225;-77
2023/06/14 10:15:32;;;;;;;0.70;0.70;;;;;;;30.11;57.97;100017.84;5073060;28;20202;-76
2023/06/14 10:18:06;;;;;;;0.60;0.60;;;;;;;29.99;58.89;100009.69;5072434;28;20229;-76
2023/06/14 10:20:38;;;;;;;0.63;0.63;;;;;;;30.52;57.09;100023.97;5072485;28;20210;-77
2023/06/14 10:23:17;;;;;;;0.70;0.70;;;;;;;30.32;56.53;100017.25;5073708;28;20229;-77
2023/06/14 10:25:45;;;;;;;0.88;0.88;;;;;;;30.13;57.68;100015.91;5072357;28;20628;-75
2023/06/14 10:28:19;;;;;;;0.70;0.70;;;;;;;30.71;56.45;100019.09;5072150;28;20301;-76
2023/06/14 10:31:08;;;;;;;0.60;0.60;;;;;;;31.27;55.25;100019.63;5071920;28;20234;-76
2023/06/14 10:33:35;;;;;;;0.85;0.85;;;;;;;30.96;55.09;100016.38;5072426;28;20210;-76
2023/06/14 10:36:10;;;;;;;0.75;0.75;;;;;;;30.40;54.37;100014.06;5072408;28;20278;-77
2023/06/14 10:38:37;;;;;;;0.80;0.80;;;;;;;30.37;55.39;100014.28;5072020;28;20210;-76
2023/06/14 10:41:07;;;;;;;0.60;0.60;;;;;;;30.47;55.98;100010.03;5072794;28;20199;-77
2023/06/14 10:43:35;;;;;;;0.80;0.80;;;;;;;30.08;56.95;100001.97;5037043;28;20661;-77
2023/06/14 10:46:21;;;;;;;1.10;1.10;;;;;;;29.92;58.04;100000.34;5036819;28;20690;-76
2023/06/14 10:48:48;;;;;;;0.70;0.70;;;;;;;29.57;57.33;99993.75;5071969;28;20222;-76
2023/06/14 10:51:20;;;;;;;0.68;0.68;;;;;;;29.50;58.64;99982.56;5072075;28;20211;-77
2023/06/14 10:53:49;;;;;;;1.13;1.13;;;;;;;29.29;59.68;100002.63;5072046;28;20199;-77
2023/06/14 10:56:29;;;;;;;0.70;0.70;;;;;;;29.16;60.55;100001.69;5071811;28;20213;-76
2023/06/14 10:58:57;;;;;;;0.60;0.60;;;;;;;29.03;61.57;100004.25;5071901;28;20661;-76
2023/06/14 11:01:34;;;;;;;0.80;0.80;;;;;;;29.22;61.76;99995.06;5072086;28;20207;-76
2023/06/14 11:04:09;;;;;;;0.90;0.90;;;;;;;28.77;62.33;99967.63;5072129;28;20229;-77
2023/06/14 11:06:47;;;;;;;0.82;0.82;;;;;;;29.25;62.36;100000.25;5071446;28;20241;-77
2023/06/14 11:09:46;;;;;;;1.73;1.63;;;;;;;29.60;60.48;99993.53;5071521;28;20380;-76
2023/06/14 11:12:16;;;;;;;0.73;0.73;;;;;;;29.61;63.24;99997.91;5071944;28;20202;-78
2023/06/14 11:14:46;;;;;;;0.70;0.70;;;;;;;29.57;62.50;99992.88;5071445;28;20653;-77
2023/06/14 11:17:13;;;;;;;0.90;0.90;;;;;;;29.87;62.18;100004.25;5072293;28;20256;-77
2023/06/14 11:19:40;;;;;;;0.80;0.80;;;;;;;29.05;68.34;99999.69;5072272;28;20264;-76
2023/06/14 11:22:07;;;;;;;0.98;0.85;;;;;;;29.31;65.74;99991.88;5071904;28;20670;-76
2023/06/14 11:24:34;;;;;;;0.63;0.63;;;;;;;29.29;66.56;99983.06;5036814;28;20256;-76
2023/06/14 11:27:01;;;;;;;0.80;0.80;;;;;;;29.62;65.53;99990.75;5072247;28;20618;-76
2023/06/14 11:29:30;;;;;;;0.60;0.60;;;;;;;29.31;68.37;99989.19;5071669;28;20713;-76
2023/06/14 11:31:57;;;;;;;0.60;0.60;;;;;;;29.62;65.05;99983.59;5072086;28;20222;-77